sensor_id;sensor_type;location;lat;lon;timestamp;temperature;humidity
19999;DHT22;10160;50.926;4.374;2023-10-19T00:00:33;16.90;99.90
19999;DHT22;10160;50.926;4.374;2023-10-19T00:03:00;16.90;99.90
19999;DHT22;10160;50.926;4.374;2023-10-19T00:05:29;16.90;99.90
19999;DHT22;10160;50.926;4.374;2023-10-19T00:07:56;16.90;99.90
19999;DHT22;10160;50.926;4.374;2023-10-19T00:10:26;17.00;99.90
19999;DHT22;10160;50.926;4.374;2023-10-19T00:12:58;16.90;99.90
19999;DHT22;10160;50.926;4.374;2023-10-19T00:15:32;17.00;99.90
19999;DHT22;10160;50.926;4.374;2023-10-19T00:17:59;17.00;99.90
19999;DHT22;10160;50.926;4.374;2023-10-19T00:20:34;16.90;99.90
19999;DHT22;10160;50.926;4.374;2023-10-19T00:23:00;16.90;99.90
19999;DHT22;10160;50.926;4.374;2023-10-19T00:25:27;17.00;99.90
19999;DHT22;10160;50.926;4.374;2023-10-19T00:27:54;17.00;99.90
19999;DHT22;10160;50.926;4.374;2023-10-19T00:30:20;16.90;99.90
19999;DHT22;10160;50.926;4.374;2023-10-19T00:32:49;17.00;99.90
19999;DHT22;10160;50.926;4.374;2023-10-19T00:35:16;17.10;99.90
19999;DHT22;10160;50.926;4.374;2023-10-19T00:38:00;17.10;99.90
19999;DHT22;10160;50.926;4.374;2023-10-19T00:40:50;17.10;99.90
19999;DHT22;10160;50.926;4.374;2023-10-19T00:43:28;17.10;99.90
19999;DHT22;10160;50.926;4.374;2023-10-19T00:45:58;17.10;99.90
19999;DHT22;10160;50.926;4.374;2023-10-19T00:48:24;17.10;99.90
19999;DHT22;10160;50.926;4.374;2023-10-19T00:50:52;17.10;99.90
19999;DHT22;10160;50.926;4.374;2023-10-19T00:53:29;17.10;99.90
19999;DHT22;10160;50.926;4.374;2023-10-19T00:55:55;17.10;99.90
19999;DHT22;10160;50.926;4.374;2023-10-19T00:58:21;17.00;99.90
19999;DHT22;10160;50.926;4.374;2023-10-19T01:00:54;17.00;99.90
19999;DHT22;10160;50.926;4.374;2023-10-19T01:03:20;17.00;99.90
19999;DHT22;10160;50.926;4.374;2023-10-19T01:05:46;16.90;99.90
19999;DHT22;10160;50.926;4.374;2023-10-19T01:08:15;16.90;99.90
19999;DHT22;10160;50.926;4.374;2023-10-19T01:10:56;17.00;99.90
19999;DHT22;10160;50.926;4.374;2023-10-19T01:13:22;16.90;99.90
19999;DHT22;10160;50.926;4.374;2023-10-19T01:15:58;16.90;99.90
19999;DHT22;10160;50.926;4.374;2023-10-19T01:18:24;16.90;99.90
19999;DHT22;10160;50.926;4.374;2023-10-19T01:20:55;17.00;99.90
19999;DHT22;10160;50.926;4.374;2023-10-19T01:23:20;17.10;99.90
19999;DHT22;10160;50.926;4.374;2023-10-19T01:25:51;17.00;99.90
19999;DHT22;10160;50.926;4.374;2023-10-19T01:28:21;17.10;99.90
19999;DHT22;10160;50.926;4.374;2023-10-19T01:30:50;17.00;99.90
19999;DHT22;10160;50.926;4.374;2023-10-19T01:33:20;16.90;99.90
19999;DHT22;10160;50.926;4.374;2023-10-19T01:35:46;16.90;99.90
19999;DHT22;10160;50.926;4.374;2023-10-19T01:38:31;16.90;99.90
19999;DHT22;10160;50.926;4.374;2023-10-19T01:41:01;17.00;99.90
19999;DHT22;10160;50.926;4.374;2023-10-19T01:43:30;17.00;99.90
19999;DHT22;10160;50.926;4.374;2023-10-19T01:45:59;17.00;99.90
19999;DHT22;10160;50.926;4.374;2023-10-19T01:48:39;16.90;99.90
19999;DHT22;10160;50.926;4.374;2023-10-19T01:51:10;16.80;99.90
19999;DHT22;10160;50.926;4.374;2023-10-19T01:53:37;16.90;99.90
19999;DHT22;10160;50.926;4.374;2023-10-19T01:56:08;16.90;99.90
19999;DHT22;10160;50.926;4.374;2023-10-19T01:58:38;16.80;99.90
19999;DHT22;10160;50.926;4.374;2023-10-19T02:01:05;16.90;99.90
19999;DHT22;10160;50.926;4.374;2023-10-19T02:03:44;16.90;99.90
19999;DHT22;10160;50.926;4.374;2023-10-19T02:06:11;16.90;99.90
19999;DHT22;10160;50.926;4.374;2023-10-19T02:08:51;17.00;99.90
19999;DHT22;10160;50.926;4.374;2023-10-19T02:11:24;16.90;99.90
19999;DHT22;10160;50.926;4.374;2023-10-19T02:13:55;16.80;99.90
19999;DHT22;10160;50.926;4.374;2023-10-19T02:16:22;16.70;99.90
19999;DHT22;10160;50.926;4.374;2023-10-19T02:18:51;16.60;99.90
19999;DHT22;10160;50.926;4.374;2023-10-19T02:21:18;16.50;99.90
19999;DHT22;10160;50.926;4.374;2023-10-19T02:23:53;16.50;99.90
19999;DHT22;10160;50.926;4.374;2023-10-19T02:26:22;16.50;99.90
19999;DHT22;10160;50.926;4.374;2023-10-19T02:28:56;16.40;99.90
19999;DHT22;10160;50.926;4.374;2023-10-19T02:31:22;16.60;99.90
19999;DHT22;10160;50.926;4.374;2023-10-19T02:33:53;16.50;99.90
19999;DHT22;10160;50.926;4.374;2023-10-19T02:36:25;16.40;99.90
19999;DHT22;10160;50.926;4.374;2023-10-19T02:38:57;16.40;99.90
19999;DHT22;10160;50.926;4.374;2023-10-19T02:41:25;16.40;99.90
19999;DHT22;10160;50.926;4.374;2023-10-19T02:43:53;16.30;99.90
19999;DHT22;10160;50.926;4.374;2023-10-19T02:46:50;16.40;99.90
19999;DHT22;10160;50.926;4.374;2023-10-19T02:49:18;16.40;99.90
19999;DHT22;10160;50.926;4.374;2023-10-19T02:51:49;16.50;99.90
19999;DHT22;10160;50.926;4.374;2023-10-19T02:54:19;16.40;99.90
19999;DHT22;10160;50.926;4.374;2023-10-19T02:56:47;16.20;99.90
19999;DHT22;10160;50.926;4.374;2023-10-19T02:59:17;16.20;99.90
19999;DHT22;10160;50.926;4.374;2023-10-19T03:04:16;16.20;99.90
19999;DHT22;10160;50.926;4.374;2023-10-19T03:06:43;16.20;99.90
19999;DHT22;10160;50.926;4.374;2023-10-19T03:09:09;16.10;99.90
19999;DHT22;10160;50.926;4.374;2023-10-19T03:11:53;16.10;99.90
19999;DHT22;10160;50.926;4.374;2023-10-19T03:14:21;16.10;99.90
19999;DHT22;10160;50.926;4.374;2023-10-19T03:16:50;16.30;99.90
19999;DHT22;10160;50.926;4.374;2023-10-19T03:19:16;16.30;99.90
19999;DHT22;10160;50.926;4.374;2023-10-19T03:21:45;16.10;99.90
19999;DHT22;10160;50.926;4.374;2023-10-19T03:24:15;16.10;99.90
19999;DHT22;10160;50.926;4.374;2023-10-19T03:26:49;16.10;99.90
19999;DHT22;10160;50.926;4.374;2023-10-19T03:29:16;16.10;99.90
19999;DHT22;10160;50.926;4.374;2023-10-19T03:31:51;16.20;99.90
19999;DHT22;10160;50.926;4.374;2023-10-19T03:34:17;16.30;99.90
19999;DHT22;10160;50.926;4.374;2023-10-19T03:36:43;16.30;99.90
19999;DHT22;10160;50.926;4.374;2023-10-19T03:39:09;16.20;99.90
19999;DHT22;10160;50.926;4.374;2023-10-19T03:41:39;16.00;99.90
19999;DHT22;10160;50.926;4.374;2023-10-19T03:44:08;16.00;99.90
19999;DHT22;10160;50.926;4.374;2023-10-19T03:46:39;16.00;99.90
19999;DHT22;10160;50.926;4.374;2023-10-19T03:49:21;16.10;99.90
19999;DHT22;10160;50.926;4.374;2023-10-19T03:51:47;16.10;99.90
19999;DHT22;10160;50.926;4.374;2023-10-19T03:54:32;16.10;99.90
19999;DHT22;10160;50.926;4.374;2023-10-19T03:56:58;16.10;99.90
19999;DHT22;10160;50.926;4.374;2023-10-19T03:59:29;16.20;99.90
19999;DHT22;10160;50.926;4.374;2023-10-19T04:01:56;16.10;99.90
19999;DHT22;10160;50.926;4.374;2023-10-19T04:04:25;16.20;99.90
19999;DHT22;10160;50.926;4.374;2023-10-19T04:06:50;16.30;99.90
19999;DHT22;10160;50.926;4.374;2023-10-19T04:09:23;16.40;99.90
19999;DHT22;10160;50.926;4.374;2023-10-19T04:11:51;16.20;99.90
19999;DHT22;10160;50.926;4.374;2023-10-19T04:14:18;16.20;99.90
19999;DHT22;10160;50.926;4.374;2023-10-19T04:16:45;16.30;99.90
19999;DHT22;10160;50.926;4.374;2023-10-19T04:19:14;16.20;99.90
19999;DHT22;10160;50.926;4.374;2023-10-19T04:21:40;16.20;99.90
19999;DHT22;10160;50.926;4.374;2023-10-19T04:24:10;16.20;99.90
19999;DHT22;10160;50.926;4.374;2023-10-19T04:26:36;16.20;99.90
19999;DHT22;10160;50.926;4.374;2023-10-19T04:29:03;16.30;99.90
19999;DHT22;10160;50.926;4.374;2023-10-19T04:31:37;16.20;99.90
19999;DHT22;10160;50.926;4.374;2023-10-19T04:34:03;16.30;99.90
19999;DHT22;10160;50.926;4.374;2023-10-19T04:36:33;16.20;99.90
19999;DHT22;10160;50.926;4.374;2023-10-19T04:39:02;16.30;99.90
19999;DHT22;10160;50.926;4.374;2023-10-19T04:41:28;16.20;99.90
19999;DHT22;10160;50.926;4.374;2023-10-19T04:43:53;16.20;99.90
19999;DHT22;10160;50.926;4.374;2023-10-19T04:46:20;16.10;99.90
19999;DHT22;10160;50.926;4.374;2023-10-19T04:48:46;16.10;99.90
19999;DHT22;10160;50.926;4.374;2023-10-19T04:51:12;16.10;99.90
19999;DHT22;10160;50.926;4.374;2023-10-19T04:53:38;16.20;99.90
19999;DHT22;10160;50.926;4.374;2023-10-19T04:56:05;16.10;99.90
19999;DHT22;10160;50.926;4.374;2023-10-19T04:58:32;16.20;99.90
19999;DHT22;10160;50.926;4.374;2023-10-19T05:00:57;16.10;99.90
19999;DHT22;10160;50.926;4.374;2023-10-19T05:03:27;16.10;99.90
19999;DHT22;10160;50.926;4.374;2023-10-19T05:05:54;16.10;99.90
19999;DHT22;10160;50.926;4.374;2023-10-19T05:08:20;16.10;99.90
19999;DHT22;10160;50.926;4.374;2023-10-19T05:10:46;16.10;99.90
19999;DHT22;10160;50.926;4.374;2023-10-19T05:13:12;16.10;99.90
19999;DHT22;10160;50.926;4.374;2023-10-19T05:15:38;16.10;99.90
19999;DHT22;10160;50.926;4.374;2023-10-19T05:18:04;16.20;99.90
19999;DHT22;10160;50.926;4.374;2023-10-19T05:20:30;16.20;99.90
19999;DHT22;10160;50.926;4.374;2023-10-19T05:22:56;16.10;99.90
19999;DHT22;10160;50.926;4.374;2023-10-19T05:25:23;16.10;99.90
19999;DHT22;10160;50.926;4.374;2023-10-19T05:27:49;16.10;99.90
19999;DHT22;10160;50.926;4.374;2023-10-19T05:30:14;16.20;99.90
19999;DHT22;10160;50.926;4.374;2023-10-19T05:32:40;16.20;99.90
19999;DHT22;10160;50.926;4.374;2023-10-19T05:35:06;16.40;99.90
19999;DHT22;10160;50.926;4.374;2023-10-19T05:37:32;16.60;99.90
19999;DHT22;10160;50.926;4.374;2023-10-19T05:39:57;16.50;99.90
19999;DHT22;10160;50.926;4.374;2023-10-19T05:42:24;16.30;99.90
19999;DHT22;10160;50.926;4.374;2023-10-19T05:44:50;16.30;99.90
19999;DHT22;10160;50.926;4.374;2023-10-19T05:47:17;16.30;99.90
19999;DHT22;10160;50.926;4.374;2023-10-19T05:49:42;16.30;99.90
19999;DHT22;10160;50.926;4.374;2023-10-19T05:52:09;16.30;99.90
19999;DHT22;10160;50.926;4.374;2023-10-19T05:54:35;16.20;99.90
19999;DHT22;10160;50.926;4.374;2023-10-19T05:57:03;16.20;99.90
19999;DHT22;10160;50.926;4.374;2023-10-19T05:59:33;16.20;99.90
19999;DHT22;10160;50.926;4.374;2023-10-19T06:01:58;16.30;99.90
19999;DHT22;10160;50.926;4.374;2023-10-19T06:04:24;16.40;99.90
19999;DHT22;10160;50.926;4.374;2023-10-19T06:06:50;16.50;99.90
19999;DHT22;10160;50.926;4.374;2023-10-19T06:09:17;16.40;99.90
19999;DHT22;10160;50.926;4.374;2023-10-19T06:11:43;16.40;99.90
19999;DHT22;10160;50.926;4.374;2023-10-19T06:14:09;16.50;99.90
19999;DHT22;10160;50.926;4.374;2023-10-19T06:16:35;16.50;99.90
19999;DHT22;10160;50.926;4.374;2023-10-19T06:19:01;16.50;99.90
19999;DHT22;10160;50.926;4.374;2023-10-19T06:21:30;16.40;99.90
19999;DHT22;10160;50.926;4.374;2023-10-19T06:23:57;16.30;99.90
19999;DHT22;10160;50.926;4.374;2023-10-19T06:26:23;16.40;99.90
19999;DHT22;10160;50.926;4.374;2023-10-19T06:28:49;16.30;99.90
19999;DHT22;10160;50.926;4.374;2023-10-19T06:31:16;16.30;99.90
19999;DHT22;10160;50.926;4.374;2023-10-19T06:33:42;16.20;99.90
19999;DHT22;10160;50.926;4.374;2023-10-19T06:36:08;16.20;99.90
19999;DHT22;10160;50.926;4.374;2023-10-19T06:38:34;16.30;99.90
19999;DHT22;10160;50.926;4.374;2023-10-19T06:41:00;16.50;99.90
19999;DHT22;10160;50.926;4.374;2023-10-19T06:43:28;16.50;99.90
19999;DHT22;10160;50.926;4.374;2023-10-19T06:45:56;16.60;99.90
19999;DHT22;10160;50.926;4.374;2023-10-19T06:48:21;16.50;99.90
19999;DHT22;10160;50.926;4.374;2023-10-19T06:50:47;16.40;99.90
19999;DHT22;10160;50.926;4.374;2023-10-19T06:53:13;16.30;99.90
19999;DHT22;10160;50.926;4.374;2023-10-19T06:55:39;16.40;99.90
19999;DHT22;10160;50.926;4.374;2023-10-19T06:58:06;16.50;99.90
19999;DHT22;10160;50.926;4.374;2023-10-19T07:00:32;16.60;99.90
19999;DHT22;10160;50.926;4.374;2023-10-19T07:03:00;16.50;99.90
19999;DHT22;10160;50.926;4.374;2023-10-19T07:05:26;16.50;99.90
19999;DHT22;10160;50.926;4.374;2023-10-19T07:07:57;16.70;99.90
19999;DHT22;10160;50.926;4.374;2023-10-19T07:10:25;16.70;99.90
19999;DHT22;10160;50.926;4.374;2023-10-19T07:12:54;16.70;99.90
19999;DHT22;10160;50.926;4.374;2023-10-19T07:15:20;16.80;99.90
19999;DHT22;10160;50.926;4.374;2023-10-19T07:17:48;16.80;99.90
19999;DHT22;10160;50.926;4.374;2023-10-19T07:20:16;16.80;99.90
19999;DHT22;10160;50.926;4.374;2023-10-19T07:22:57;16.90;99.90
19999;DHT22;10160;50.926;4.374;2023-10-19T07:25:46;16.90;99.90
19999;DHT22;10160;50.926;4.374;2023-10-19T07:28:25;17.10;99.90
19999;DHT22;10160;50.926;4.374;2023-10-19T07:30:52;16.90;99.90
19999;DHT22;10160;50.926;4.374;2023-10-19T07:33:18;17.00;99.90
19999;DHT22;10160;50.926;4.374;2023-10-19T07:35:46;17.00;99.90
19999;DHT22;10160;50.926;4.374;2023-10-19T07:38:15;17.00;99.90
19999;DHT22;10160;50.926;4.374;2023-10-19T07:40:42;17.00;99.90
19999;DHT22;10160;50.926;4.374;2023-10-19T07:43:09;17.00;99.90
19999;DHT22;10160;50.926;4.374;2023-10-19T07:45:35;16.90;99.90
19999;DHT22;10160;50.926;4.374;2023-10-19T07:48:02;16.90;99.90
19999;DHT22;10160;50.926;4.374;2023-10-19T07:50:38;17.00;99.90
19999;DHT22;10160;50.926;4.374;2023-10-19T07:53:06;16.90;99.90
19999;DHT22;10160;50.926;4.374;2023-10-19T07:55:32;16.90;99.90
19999;DHT22;10160;50.926;4.374;2023-10-19T07:57:58;16.90;99.90
19999;DHT22;10160;50.926;4.374;2023-10-19T08:00:29;17.00;99.90
19999;DHT22;10160;50.926;4.374;2023-10-19T08:02:59;17.20;99.90
19999;DHT22;10160;50.926;4.374;2023-10-19T08:05:25;17.20;99.90
19999;DHT22;10160;50.926;4.374;2023-10-19T08:07:51;17.20;99.90
19999;DHT22;10160;50.926;4.374;2023-10-19T08:10:19;17.20;99.90
19999;DHT22;10160;50.926;4.374;2023-10-19T08:12:46;17.00;99.90
19999;DHT22;10160;50.926;4.374;2023-10-19T08:15:15;17.10;99.90
19999;DHT22;10160;50.926;4.374;2023-10-19T08:17:43;17.10;99.90
19999;DHT22;10160;50.926;4.374;2023-10-19T08:20:11;17.20;99.90
19999;DHT22;10160;50.926;4.374;2023-10-19T08:22:53;17.30;99.90
19999;DHT22;10160;50.926;4.374;2023-10-19T08:25:19;17.30;99.90
19999;DHT22;10160;50.926;4.374;2023-10-19T08:27:46;17.20;99.90
19999;DHT22;10160;50.926;4.374;2023-10-19T08:30:17;17.20;99.90
19999;DHT22;10160;50.926;4.374;2023-10-19T08:32:44;17.20;99.90
19999;DHT22;10160;50.926;4.374;2023-10-19T08:35:14;17.20;99.90
19999;DHT22;10160;50.926;4.374;2023-10-19T08:37:40;17.30;99.90
19999;DHT22;10160;50.926;4.374;2023-10-19T08:40:09;17.30;99.90
19999;DHT22;10160;50.926;4.374;2023-10-19T08:42:39;17.50;99.90
19999;DHT22;10160;50.926;4.374;2023-10-19T08:45:06;17.70;99.90
19999;DHT22;10160;50.926;4.374;2023-10-19T08:47:37;17.80;99.90
19999;DHT22;10160;50.926;4.374;2023-10-19T08:50:04;17.70;99.90
19999;DHT22;10160;50.926;4.374;2023-10-19T08:52:33;17.80;99.90
19999;DHT22;10160;50.926;4.374;2023-10-19T08:55:01;17.90;99.90
19999;DHT22;10160;50.926;4.374;2023-10-19T08:57:27;17.80;99.90
19999;DHT22;10160;50.926;4.374;2023-10-19T08:59:54;17.80;99.90
19999;DHT22;10160;50.926;4.374;2023-10-19T09:02:24;17.80;99.90
19999;DHT22;10160;50.926;4.374;2023-10-19T09:04:49;17.80;99.90
19999;DHT22;10160;50.926;4.374;2023-10-19T09:07:18;17.80;99.90
19999;DHT22;10160;50.926;4.374;2023-10-19T09:09:45;17.80;99.90
19999;DHT22;10160;50.926;4.374;2023-10-19T09:12:12;18.00;99.90
19999;DHT22;10160;50.926;4.374;2023-10-19T09:14:42;17.90;99.90
19999;DHT22;10160;50.926;4.374;2023-10-19T09:17:08;17.90;99.90
19999;DHT22;10160;50.926;4.374;2023-10-19T09:19:41;18.00;99.90
19999;DHT22;10160;50.926;4.374;2023-10-19T09:22:08;18.00;99.90
19999;DHT22;10160;50.926;4.374;2023-10-19T09:24:42;18.00;99.90
19999;DHT22;10160;50.926;4.374;2023-10-19T09:27:08;18.00;99.90
19999;DHT22;10160;50.926;4.374;2023-10-19T09:29:33;18.00;99.90
19999;DHT22;10160;50.926;4.374;2023-10-19T09:32:00;17.80;99.90
19999;DHT22;10160;50.926;4.374;2023-10-19T09:34:30;18.00;99.90
19999;DHT22;10160;50.926;4.374;2023-10-19T09:37:03;18.00;99.90
19999;DHT22;10160;50.926;4.374;2023-10-19T09:39:32;18.00;99.90
19999;DHT22;10160;50.926;4.374;2023-10-19T09:42:09;17.90;99.90
19999;DHT22;10160;50.926;4.374;2023-10-19T09:44:48;18.00;99.90
19999;DHT22;10160;50.926;4.374;2023-10-19T09:47:36;18.00;99.90
19999;DHT22;10160;50.926;4.374;2023-10-19T09:50:04;18.00;99.90
19999;DHT22;10160;50.926;4.374;2023-10-19T09:52:33;18.10;99.90
19999;DHT22;10160;50.926;4.374;2023-10-19T10:00:11;18.30;99.90
19999;DHT22;10160;50.926;4.374;2023-10-19T10:02:43;18.30;99.90
19999;DHT22;10160;50.926;4.374;2023-10-19T10:10:43;18.40;99.90
19999;DHT22;10160;50.926;4.374;2023-10-19T10:15:55;18.80;99.90
19999;DHT22;10160;50.926;4.374;2023-10-19T10:18:27;18.90;99.90
19999;DHT22;10160;50.926;4.374;2023-10-19T10:21:10;19.20;99.90
19999;DHT22;10160;50.926;4.374;2023-10-19T10:23:47;19.60;99.90
19999;DHT22;10160;50.926;4.374;2023-10-19T10:26:14;19.60;99.90
19999;DHT22;10160;50.926;4.374;2023-10-19T10:28:41;19.30;99.90
19999;DHT22;10160;50.926;4.374;2023-10-19T10:31:20;19.30;99.90
19999;DHT22;10160;50.926;4.374;2023-10-19T10:33:54;19.10;99.90
19999;DHT22;10160;50.926;4.374;2023-10-19T10:36:21;19.00;99.90
19999;DHT22;10160;50.926;4.374;2023-10-19T10:38:48;19.00;99.90
19999;DHT22;10160;50.926;4.374;2023-10-19T10:41:25;19.00;99.90
19999;DHT22;10160;50.926;4.374;2023-10-19T10:43:55;19.00;99.90
19999;DHT22;10160;50.926;4.374;2023-10-19T10:46:23;18.80;99.90
19999;DHT22;10160;50.926;4.374;2023-10-19T10:48:49;18.90;99.90
19999;DHT22;10160;50.926;4.374;2023-10-19T10:51:19;18.90;99.90
19999;DHT22;10160;50.926;4.374;2023-10-19T10:53:52;18.80;99.90
19999;DHT22;10160;50.926;4.374;2023-10-19T10:56:20;18.80;99.90
19999;DHT22;10160;50.926;4.374;2023-10-19T10:58:46;18.80;99.90
19999;DHT22;10160;50.926;4.374;2023-10-19T11:01:11;18.90;99.90
19999;DHT22;10160;50.926;4.374;2023-10-19T11:03:39;18.80;99.90
19999;DHT22;10160;50.926;4.374;2023-10-19T11:06:06;18.70;99.90
19999;DHT22;10160;50.926;4.374;2023-10-19T11:08:34;18.70;99.90
19999;DHT22;10160;50.926;4.374;2023-10-19T11:13:31;18.70;99.90
19999;DHT22;10160;50.926;4.374;2023-10-19T11:15:59;18.70;99.90
19999;DHT22;10160;50.926;4.374;2023-10-19T11:21:02;18.70;99.90
19999;DHT22;10160;50.926;4.374;2023-10-19T11:26:06;18.80;99.90
19999;DHT22;10160;50.926;4.374;2023-10-19T11:28:33;18.90;99.90
19999;DHT22;10160;50.926;4.374;2023-10-19T11:33:46;19.00;99.90
19999;DHT22;10160;50.926;4.374;2023-10-19T11:36:14;19.00;99.90
19999;DHT22;10160;50.926;4.374;2023-10-19T11:38:47;18.90;99.90
19999;DHT22;10160;50.926;4.374;2023-10-19T11:41:13;18.90;99.90
19999;DHT22;10160;50.926;4.374;2023-10-19T11:43:43;18.80;99.90
19999;DHT22;10160;50.926;4.374;2023-10-19T11:46:10;18.90;99.90
19999;DHT22;10160;50.926;4.374;2023-10-19T11:48:37;18.90;99.90
19999;DHT22;10160;50.926;4.374;2023-10-19T11:51:03;18.90;99.90
19999;DHT22;10160;50.926;4.374;2023-10-19T11:53:37;18.90;99.90
19999;DHT22;10160;50.926;4.374;2023-10-19T11:56:07;19.00;99.90
19999;DHT22;10160;50.926;4.374;2023-10-19T11:58:34;19.10;99.90
19999;DHT22;10160;50.926;4.374;2023-10-19T12:01:04;19.10;99.90
19999;DHT22;10160;50.926;4.374;2023-10-19T12:03:42;19.10;99.90
19999;DHT22;10160;50.926;4.374;2023-10-19T12:06:11;19.00;99.90
19999;DHT22;10160;50.926;4.374;2023-10-19T12:08:38;19.00;99.90
19999;DHT22;10160;50.926;4.374;2023-10-19T12:11:06;18.90;99.90
19999;DHT22;10160;50.926;4.374;2023-10-19T12:13:41;18.70;99.90
19999;DHT22;10160;50.926;4.374;2023-10-19T12:16:09;18.70;99.90
19999;DHT22;10160;50.926;4.374;2023-10-19T12:18:40;18.70;99.90
19999;DHT22;10160;50.926;4.374;2023-10-19T12:21:07;18.70;99.90
19999;DHT22;10160;50.926;4.374;2023-10-19T12:23:40;18.70;99.90
19999;DHT22;10160;50.926;4.374;2023-10-19T12:26:06;18.70;99.90
19999;DHT22;10160;50.926;4.374;2023-10-19T12:28:37;18.80;99.90
19999;DHT22;10160;50.926;4.374;2023-10-19T12:31:04;18.70;99.90
19999;DHT22;10160;50.926;4.374;2023-10-19T12:33:31;18.60;99.90
19999;DHT22;10160;50.926;4.374;2023-10-19T12:35:56;18.60;99.90
19999;DHT22;10160;50.926;4.374;2023-10-19T12:38:23;18.60;99.90
19999;DHT22;10160;50.926;4.374;2023-10-19T12:40:50;18.60;99.90
19999;DHT22;10160;50.926;4.374;2023-10-19T12:43:17;18.90;99.90
19999;DHT22;10160;50.926;4.374;2023-10-19T12:45:48;18.90;99.90
19999;DHT22;10160;50.926;4.374;2023-10-19T12:48:19;18.90;99.90
19999;DHT22;10160;50.926;4.374;2023-10-19T12:50:48;19.20;99.90
19999;DHT22;10160;50.926;4.374;2023-10-19T12:53:14;19.60;99.90
19999;DHT22;10160;50.926;4.374;2023-10-19T12:55:40;20.00;99.90
19999;DHT22;10160;50.926;4.374;2023-10-19T12:58:08;20.20;99.90
19999;DHT22;10160;50.926;4.374;2023-10-19T13:00:37;21.00;99.90
19999;DHT22;10160;50.926;4.374;2023-10-19T13:03:07;21.40;99.90
19999;DHT22;10160;50.926;4.374;2023-10-19T13:05:36;22.40;99.90
19999;DHT22;10160;50.926;4.374;2023-10-19T13:08:09;23.30;99.90
19999;DHT22;10160;50.926;4.374;2023-10-19T13:10:39;23.70;99.90
19999;DHT22;10160;50.926;4.374;2023-10-19T13:13:08;24.90;99.90
19999;DHT22;10160;50.926;4.374;2023-10-19T13:15:37;25.40;99.90
19999;DHT22;10160;50.926;4.374;2023-10-19T13:18:05;25.30;99.90
19999;DHT22;10160;50.926;4.374;2023-10-19T13:20:32;25.80;99.90
19999;DHT22;10160;50.926;4.374;2023-10-19T13:23:05;26.70;99.90
19999;DHT22;10160;50.926;4.374;2023-10-19T13:25:51;26.90;99.90
19999;DHT22;10160;50.926;4.374;2023-10-19T13:28:33;26.50;99.90
19999;DHT22;10160;50.926;4.374;2023-10-19T13:31:00;25.90;99.90
19999;DHT22;10160;50.926;4.374;2023-10-19T13:33:26;26.30;99.90
19999;DHT22;10160;50.926;4.374;2023-10-19T13:35:52;25.60;99.90
19999;DHT22;10160;50.926;4.374;2023-10-19T13:38:18;25.40;99.90
19999;DHT22;10160;50.926;4.374;2023-10-19T13:40:48;26.00;99.90
19999;DHT22;10160;50.926;4.374;2023-10-19T13:43:16;25.00;99.90
19999;DHT22;10160;50.926;4.374;2023-10-19T13:45:44;24.20;99.90
19999;DHT22;10160;50.926;4.374;2023-10-19T13:48:11;23.60;99.90
19999;DHT22;10160;50.926;4.374;2023-10-19T13:50:43;23.50;99.90
19999;DHT22;10160;50.926;4.374;2023-10-19T13:53:09;24.40;99.90
19999;DHT22;10160;50.926;4.374;2023-10-19T13:55:35;24.80;99.90
19999;DHT22;10160;50.926;4.374;2023-10-19T13:58:02;25.40;99.90
19999;DHT22;10160;50.926;4.374;2023-10-19T14:00:28;25.60;99.90
19999;DHT22;10160;50.926;4.374;2023-10-19T14:03:01;25.90;99.90
19999;DHT22;10160;50.926;4.374;2023-10-19T14:05:35;26.10;99.90
19999;DHT22;10160;50.926;4.374;2023-10-19T14:08:02;25.90;99.90
19999;DHT22;10160;50.926;4.374;2023-10-19T14:10:29;24.70;99.90
19999;DHT22;10160;50.926;4.374;2023-10-19T14:12:56;24.20;99.90
19999;DHT22;10160;50.926;4.374;2023-10-19T14:15:22;24.40;99.90
19999;DHT22;10160;50.926;4.374;2023-10-19T14:17:48;24.20;99.90
19999;DHT22;10160;50.926;4.374;2023-10-19T14:20:15;23.30;99.90
19999;DHT22;10160;50.926;4.374;2023-10-19T14:22:42;22.40;99.90
19999;DHT22;10160;50.926;4.374;2023-10-19T14:25:09;21.90;99.90
19999;DHT22;10160;50.926;4.374;2023-10-19T14:27:45;21.40;99.90
19999;DHT22;10160;50.926;4.374;2023-10-19T14:30:13;21.40;99.90
19999;DHT22;10160;50.926;4.374;2023-10-19T14:32:43;21.80;99.90
19999;DHT22;10160;50.926;4.374;2023-10-19T14:35:10;22.10;99.90
19999;DHT22;10160;50.926;4.374;2023-10-19T14:37:56;22.70;99.90
19999;DHT22;10160;50.926;4.374;2023-10-19T14:40:26;22.70;99.90
19999;DHT22;10160;50.926;4.374;2023-10-19T14:42:54;22.30;99.90
19999;DHT22;10160;50.926;4.374;2023-10-19T14:45:21;22.70;99.90
19999;DHT22;10160;50.926;4.374;2023-10-19T14:47:52;23.00;99.90
19999;DHT22;10160;50.926;4.374;2023-10-19T14:50:18;23.10;99.90
19999;DHT22;10160;50.926;4.374;2023-10-19T14:52:46;23.10;99.90
19999;DHT22;10160;50.926;4.374;2023-10-19T14:55:13;23.10;99.90
19999;DHT22;10160;50.926;4.374;2023-10-19T14:57:43;23.10;99.90
19999;DHT22;10160;50.926;4.374;2023-10-19T15:00:12;23.00;99.90
19999;DHT22;10160;50.926;4.374;2023-10-19T15:02:44;22.90;99.90
19999;DHT22;10160;50.926;4.374;2023-10-19T15:05:11;23.10;99.90
19999;DHT22;10160;50.926;4.374;2023-10-19T15:07:49;22.80;99.90
19999;DHT22;10160;50.926;4.374;2023-10-19T15:10:20;22.90;99.90
19999;DHT22;10160;50.926;4.374;2023-10-19T15:12:46;22.30;99.90
19999;DHT22;10160;50.926;4.374;2023-10-19T15:15:11;21.80;99.90
19999;DHT22;10160;50.926;4.374;2023-10-19T15:17:38;21.00;99.90
19999;DHT22;10160;50.926;4.374;2023-10-19T15:20:08;20.50;99.90
19999;DHT22;10160;50.926;4.374;2023-10-19T15:22:38;20.50;99.90
19999;DHT22;10160;50.926;4.374;2023-10-19T15:25:07;20.30;99.90
19999;DHT22;10160;50.926;4.374;2023-10-19T15:27:35;20.30;99.90
19999;DHT22;10160;50.926;4.374;2023-10-19T15:30:01;20.40;99.90
19999;DHT22;10160;50.926;4.374;2023-10-19T15:32:28;20.30;99.90
19999;DHT22;10160;50.926;4.374;2023-10-19T15:34:56;20.30;99.90
19999;DHT22;10160;50.926;4.374;2023-10-19T15:37:22;19.90;99.90
19999;DHT22;10160;50.926;4.374;2023-10-19T15:39:49;19.80;99.90
19999;DHT22;10160;50.926;4.374;2023-10-19T15:42:15;19.60;99.90
19999;DHT22;10160;50.926;4.374;2023-10-19T15:44:41;19.60;99.90
19999;DHT22;10160;50.926;4.374;2023-10-19T15:47:07;19.60;99.90
19999;DHT22;10160;50.926;4.374;2023-10-19T15:49:46;19.70;99.90
19999;DHT22;10160;50.926;4.374;2023-10-19T15:52:13;19.70;99.90
19999;DHT22;10160;50.926;4.374;2023-10-19T15:54:39;19.60;99.90
19999;DHT22;10160;50.926;4.374;2023-10-19T15:57:05;19.70;99.90
19999;DHT22;10160;50.926;4.374;2023-10-19T15:59:31;19.70;99.90
19999;DHT22;10160;50.926;4.374;2023-10-19T16:01:57;19.60;99.90
19999;DHT22;10160;50.926;4.374;2023-10-19T16:04:23;19.80;99.90
19999;DHT22;10160;50.926;4.374;2023-10-19T16:06:49;19.70;99.90